createdAt,value
2016-11-22T00:00:09.657Z,98.24
2016-11-22T00:01:10.402Z,98.14
2016-11-22T00:02:09.534Z,98.24
2016-11-22T00:03:09.608Z,98.52
2016-11-22T00:04:10.247Z,98.14
2016-11-22T00:05:09.806Z,98.05
2016-11-22T00:06:10.075Z,97.75
2016-11-22T00:07:10.039Z,98.05
2016-11-22T00:08:09.750Z,97.95
2016-11-22T00:09:09.737Z,97.85
2016-11-22T00:10:10.121Z,98.14
2016-11-22T00:11:10.115Z,98.05
2016-11-22T00:12:09.691Z,98.24
2016-11-22T00:13:10.080Z,98.33
2016-11-22T00:14:09.399Z,98.62
2016-11-22T00:15:10.090Z,98.47
2016-11-22T00:16:10.028Z,98.81
2016-11-22T00:17:10.011Z,99.48
2016-11-22T00:18:09.575Z,98.71
2016-11-22T00:19:09.976Z,99.19
2016-11-22T00:20:09.304Z,99.38
2016-11-22T00:21:09.210Z,98.95
2016-11-22T00:22:09.922Z,99.33
2016-11-22T00:23:09.491Z,99.62
2016-11-22T00:24:09.184Z,99.99
2016-11-22T00:25:09.870Z,99.81
2016-11-22T00:26:09.837Z,99.81
2016-11-22T00:27:09.171Z,99.72
2016-11-22T00:28:09.819Z,99.81
2016-11-22T00:29:09.791Z,99.81
2016-11-22T00:30:09.041Z,99.81
2016-11-22T00:31:09.749Z,99.72
2016-11-22T00:32:09.329Z,99.81
2016-11-22T00:33:09.638Z,99.91
2016-11-22T00:34:09.693Z,99.99
2016-11-22T00:35:09.549Z,99.81
2016-11-22T00:36:09.013Z,99.62
2016-11-22T00:37:09.059Z,99.72
2016-11-22T00:38:09.226Z,99.72
2016-11-22T00:39:09.199Z,99.62
2016-11-22T00:40:09.601Z,99.91
2016-11-22T00:41:09.028Z,99.81
2016-11-22T00:42:09.148Z,99.15
2016-11-22T00:43:09.184Z,99.33
2016-11-22T00:44:09.116Z,99.24
2016-11-22T00:45:09.100Z,98.57
2016-11-22T00:46:09.504Z,98.28
2016-11-22T00:47:09.368Z,98.47
2016-11-22T00:48:09.459Z,98.28
2016-11-22T00:49:09.090Z,98.28
2016-11-22T00:50:09.421Z,98.09
2016-11-22T00:51:09.421Z,98.76
2016-11-22T00:52:09.281Z,98.66
2016-11-22T00:53:09.485Z,98.57
2016-11-22T00:54:09.202Z,98.28
2016-11-22T00:55:09.330Z,98.19
2016-11-22T00:56:08.903Z,97.9
2016-11-22T00:57:08.946Z,97.9
2016-11-22T00:58:08.869Z,98
2016-11-22T00:59:08.851Z,97.52
2016-11-22T01:00:09.279Z,97.8
2016-11-22T01:01:09.250Z,98.09
2016-11-22T01:02:09.220Z,98
2016-11-22T01:03:09.199Z,97.8
2016-11-22T01:04:09.200Z,98.28
2016-11-22T01:05:08.530Z,98.47
2016-11-22T01:06:08.421Z,98.76
2016-11-22T01:07:09.121Z,98.86
2016-11-22T01:08:08.690Z,99.24
2016-11-22T01:09:08.673Z,99.19
2016-11-22T01:10:08.658Z,99.72
2016-11-22T01:11:08.408Z,99.76
2016-11-22T01:12:09.041Z,99.57
2016-11-22T01:13:09.055Z,99.48
2016-11-22T01:14:09.028Z,99.99
2016-11-22T01:15:08.982Z,99.99
2016-11-22T01:16:08.971Z,99.99
2016-11-22T01:17:08.941Z,99.99
2016-11-22T01:18:08.760Z,99.99
2016-11-22T01:19:08.492Z,99.99
2016-11-22T01:20:08.901Z,99.99
2016-11-22T01:21:08.224Z,99.99
2016-11-22T01:22:08.853Z,99.99
2016-11-22T01:23:08.431Z,99.99
2016-11-22T01:24:08.093Z,99.99
2016-11-22T01:25:08.159Z,99.99
2016-11-22T01:26:08.790Z,99.99
2016-11-22T01:27:08.111Z,99.99
2016-11-22T01:28:08.741Z,99.99
2016-11-22T01:29:08.732Z,99.99
2016-11-22T01:30:08.736Z,99.99
2016-11-22T01:31:08.704Z,99.99
2016-11-22T01:32:08.692Z,99.99
2016-11-22T01:33:08.252Z,99.99
2016-11-22T01:34:08.643Z,99.99
2016-11-22T01:35:08.626Z,99.99
2016-11-22T01:36:08.606Z,99.99
2016-11-22T01:37:08.585Z,99.99
2016-11-22T01:38:08.563Z,99.99
2016-11-22T01:39:08.402Z,99.99
2016-11-22T01:40:08.115Z,99.99
2016-11-22T01:41:08.522Z,99.99
2016-11-22T01:42:08.495Z,99.99
2016-11-22T01:43:08.472Z,99.99
2016-11-22T01:44:08.032Z,99.99
2016-11-22T01:45:08.503Z,99.99
2016-11-22T01:46:08.282Z,99.99
2016-11-22T01:47:07.738Z,99.99
2016-11-22T01:48:08.375Z,99.99
2016-11-22T01:49:07.947Z,99.99
2016-11-22T01:50:08.333Z,99.99
2016-11-22T01:51:08.312Z,99.99
2016-11-22T01:52:07.574Z,99.99
2016-11-22T01:53:07.880Z,99.99
2016-11-22T01:54:08.265Z,99.99
2016-11-22T01:55:08.334Z,99.99
2016-11-22T01:56:08.223Z,99.99
2016-11-22T01:57:07.799Z,99.99
2016-11-22T01:58:08.206Z,99.99
2016-11-22T01:59:07.551Z,99.99
2016-11-22T02:00:08.156Z,99.99
2016-11-22T02:01:07.490Z,99.57
2016-11-22T02:02:08.106Z,99.99
2016-11-22T02:03:08.151Z,99.76
2016-11-22T02:04:08.091Z,99.76
2016-11-22T02:05:07.922Z,99.99
2016-11-22T02:06:07.627Z,99.86
2016-11-22T02:07:07.622Z,99.48
2016-11-22T02:08:08.025Z,99.67
2016-11-22T02:09:07.581Z,99.29
2016-11-22T02:10:07.241Z,99
2016-11-22T02:11:07.950Z,99
2016-11-22T02:12:07.541Z,98.9
2016-11-22T02:13:07.931Z,98.81
2016-11-22T02:14:07.917Z,99.1
2016-11-22T02:15:07.477Z,98.71
2016-11-22T02:16:07.860Z,98.52
2016-11-22T02:17:07.122Z,98.71
2016-11-22T02:18:07.422Z,98.71
2016-11-22T02:19:07.830Z,98.71
2016-11-22T02:20:07.804Z,99
2016-11-22T02:21:07.780Z,99.19
2016-11-22T02:22:07.030Z,98.9
2016-11-22T02:23:07.742Z,99.1
2016-11-22T02:24:07.310Z,99
2016-11-22T02:25:07.697Z,98.9
2016-11-22T02:26:07.526Z,99
2016-11-22T02:27:07.255Z,98.9
2016-11-22T02:28:07.664Z,99.19
2016-11-22T02:29:07.646Z,99.38
2016-11-22T02:30:07.463Z,99.67
2016-11-22T02:31:07.588Z,99.99
2016-11-22T02:32:07.558Z,99.86
2016-11-22T02:33:07.143Z,99.76
2016-11-22T02:34:07.557Z,99.99
2016-11-22T02:35:07.531Z,99.99
2016-11-22T02:36:07.359Z,99.99
2016-11-22T02:37:07.477Z,99.99
2016-11-22T02:38:07.488Z,99.99
2016-11-22T02:39:07.454Z,99.99
2016-11-22T02:40:06.696Z,99.99
2016-11-22T02:41:06.756Z,99.99
2016-11-22T02:42:07.386Z,99.99
2016-11-22T02:43:07.373Z,99.99
2016-11-22T02:44:07.345Z,99.99
2016-11-22T02:45:07.214Z,99.99
2016-11-22T02:46:06.904Z,99.99
2016-11-22T02:47:06.561Z,99.99
2016-11-22T02:48:07.295Z,99.99
2016-11-22T02:49:07.105Z,99.99
2016-11-22T02:50:06.826Z,99.99
2016-11-22T02:51:06.570Z,99.99
2016-11-22T02:52:06.798Z,99.99
2016-11-22T02:53:06.538Z,99.99
2016-11-22T02:54:07.170Z,99.99
2016-11-22T02:55:07.167Z,99.99
2016-11-22T02:56:06.717Z,99.99
2016-11-22T02:57:07.106Z,99.99
2016-11-22T02:58:06.367Z,99.99
2016-11-22T02:59:06.936Z,99.99
2016-11-22T03:00:07.052Z,99.99
2016-11-22T03:01:06.626Z,99.99
2016-11-22T03:02:06.377Z,99.99
2016-11-22T03:03:06.276Z,99.99
2016-11-22T03:04:06.568Z,99.99
2016-11-22T03:05:06.885Z,99.99
2016-11-22T03:06:06.535Z,99.99
2016-11-22T03:07:06.518Z,99.99
2016-11-22T03:08:06.504Z,99.99
2016-11-22T03:09:06.487Z,99.99
2016-11-22T03:10:06.856Z,99.99
2016-11-22T03:11:06.855Z,99.99
2016-11-22T03:12:06.249Z,99.99
2016-11-22T03:13:06.824Z,99.99
2016-11-22T03:14:06.810Z,99.99
2016-11-22T03:15:06.800Z,99.99
2016-11-22T03:16:06.033Z,99.99
2016-11-22T03:17:06.760Z,99.99
2016-11-22T03:18:06.126Z,99.99
2016-11-22T03:19:06.306Z,99.99
2016-11-22T03:20:06.698Z,99.99
2016-11-22T03:21:06.682Z,99.99
2016-11-22T03:22:06.244Z,99.99
2016-11-22T03:23:06.650Z,99.99
2016-11-22T03:24:06.608Z,99.99
2016-11-22T03:25:06.185Z,99.99
2016-11-22T03:26:06.164Z,99.99
2016-11-22T03:27:06.573Z,99.99
2016-11-22T03:28:06.545Z,99.99
2016-11-22T03:29:05.888Z,99.99
2016-11-22T03:30:06.096Z,99.99
2016-11-22T03:31:05.755Z,99.99
2016-11-22T03:32:06.459Z,99.99
2016-11-22T03:33:06.037Z,99.99
2016-11-22T03:34:06.031Z,99.99
2016-11-22T03:35:05.995Z,99.99
2016-11-22T03:36:05.980Z,99.99
2016-11-22T03:37:06.371Z,99.99
2016-11-22T03:38:06.359Z,99.99
2016-11-22T03:39:05.930Z,99.99
2016-11-22T03:40:06.333Z,99.99
2016-11-22T03:41:06.324Z,99.99
2016-11-22T03:42:06.294Z,99.99
2016-11-22T03:43:05.865Z,99.99
2016-11-22T03:44:06.257Z,99.99
2016-11-22T03:45:05.820Z,99.99
2016-11-22T03:46:05.477Z,99.99
2016-11-22T03:47:06.201Z,99.99
2016-11-22T03:48:05.776Z,99.99
2016-11-22T03:49:06.169Z,99.99
2016-11-22T03:50:05.486Z,99.99
2016-11-22T03:51:06.109Z,99.99
2016-11-22T03:52:05.453Z,99.99
2016-11-22T03:53:05.350Z,99.99
2016-11-22T03:54:05.411Z,99.99
2016-11-22T03:55:05.633Z,99.99
2016-11-22T03:56:06.041Z,99.99
2016-11-22T03:57:06.008Z,99.99
2016-11-22T03:58:05.986Z,99.99
2016-11-22T03:59:05.248Z,99.99
2016-11-22T04:00:05.542Z,99.99
2016-11-22T04:01:05.937Z,99.99
2016-11-22T04:02:05.277Z,99.99
2016-11-22T04:03:05.486Z,99.99
2016-11-22T04:04:05.873Z,99.99
2016-11-22T04:05:05.457Z,99.99
2016-11-22T04:06:05.434Z,99.99
2016-11-22T04:07:05.818Z,99.99
2016-11-22T04:08:05.410Z,99.99
2016-11-22T04:09:05.800Z,99.99
2016-11-22T04:10:05.355Z,99.99
2016-11-22T04:11:05.755Z,99.99
2016-11-22T04:12:05.325Z,99.99
2016-11-22T04:13:05.737Z,99.99
2016-11-22T04:14:05.696Z,99.99
2016-11-22T04:15:05.035Z,99.99
2016-11-22T04:16:05.246Z,99.99
2016-11-22T04:17:05.235Z,99.99
2016-11-22T04:18:05.212Z,99.99
2016-11-22T04:19:04.955Z,99.99
2016-11-22T04:20:05.171Z,99.99
2016-11-22T04:21:05.570Z,99.99
2016-11-22T04:22:05.140Z,99.99
2016-11-22T04:23:05.546Z,99.99
2016-11-22T04:24:05.526Z,99.99
2016-11-22T04:25:05.486Z,99.99
2016-11-22T04:26:05.059Z,99.99
2016-11-22T04:27:05.047Z,99.99
2016-11-22T04:28:05.025Z,99.99
2016-11-22T04:29:05.265Z,99.99
2016-11-22T04:30:05.381Z,99.99
2016-11-22T04:31:04.969Z,99.99
2016-11-22T04:32:05.371Z,99.99
2016-11-22T04:33:05.336Z,99.99
2016-11-22T04:34:05.316Z,99.99
2016-11-22T04:35:05.344Z,99.99
2016-11-22T04:36:05.316Z,99.99
2016-11-22T04:37:04.618Z,99.99
2016-11-22T04:38:04.836Z,99.99
2016-11-22T04:39:04.580Z,99.99
2016-11-22T04:40:04.795Z,99.99
2016-11-22T04:41:04.787Z,99.99
2016-11-22T04:42:05.186Z,99.99
2016-11-22T04:43:05.142Z,99.99
2016-11-22T04:44:04.408Z,99.99
2016-11-22T04:45:05.136Z,99.99
2016-11-22T04:46:04.684Z,99.99
2016-11-22T04:47:04.947Z,99.99
2016-11-22T04:48:04.405Z,99.99
2016-11-22T04:49:04.397Z,99.99
2016-11-22T04:50:05.028Z,99.99
2016-11-22T04:51:04.599Z,99.95
2016-11-22T04:52:04.985Z,99.95
2016-11-22T04:53:04.997Z,99.99
2016-11-22T04:54:04.537Z,99.99
2016-11-22T04:55:04.522Z,99.76
2016-11-22T04:56:04.919Z,99.71
2016-11-22T04:57:04.483Z,99.52
2016-11-22T04:58:04.463Z,99.81
2016-11-22T04:59:04.843Z,99.99
2016-11-22T05:00:04.119Z,99.52
2016-11-22T05:01:04.409Z,99.71
2016-11-22T05:02:04.069Z,99.62
2016-11-22T05:03:04.779Z,99.52
2016-11-22T05:04:04.754Z,99.57
2016-11-22T05:05:04.611Z,99.38
2016-11-22T05:06:04.072Z,99.76
2016-11-22T05:07:04.069Z,99.48
2016-11-22T05:08:04.034Z,99.19
2016-11-22T05:09:04.260Z,99.28
2016-11-22T05:10:03.931Z,99.76
2016-11-22T05:11:04.630Z,99.76
2016-11-22T05:12:04.607Z,99.09
2016-11-22T05:13:04.530Z,98.9
2016-11-22T05:14:03.846Z,98.99
2016-11-22T05:15:04.151Z,98.9
2016-11-22T05:16:03.892Z,99.28
2016-11-22T05:17:04.520Z,98.9
2016-11-22T05:18:04.090Z,98.8
2016-11-22T05:19:04.087Z,98.99
2016-11-22T05:20:04.500Z,99.28
2016-11-22T05:21:04.466Z,99.09
2016-11-22T05:22:04.430Z,99.28
2016-11-22T05:23:04.422Z,99.19
2016-11-22T05:24:03.987Z,99.09
2016-11-22T05:25:03.969Z,98.9
2016-11-22T05:26:03.947Z,98.52
2016-11-22T05:27:03.938Z,98.04
2016-11-22T05:28:04.315Z,98.33
2016-11-22T05:29:04.315Z,98.33
2016-11-22T05:30:03.876Z,98.52
2016-11-22T05:31:04.273Z,98.52
2016-11-22T05:32:04.282Z,98.71
2016-11-22T05:33:03.577Z,98.33
2016-11-22T05:34:03.807Z,98.42
2016-11-22T05:35:03.784Z,99.28
2016-11-22T05:36:03.535Z,99.09
2016-11-22T05:37:03.744Z,98.99
2016-11-22T05:38:04.144Z,99.28
2016-11-22T05:39:03.704Z,99.28
2016-11-22T05:40:04.104Z,98.8
2016-11-22T05:41:04.089Z,98.61
2016-11-22T05:42:04.064Z,98.52
2016-11-22T05:43:04.064Z,98.42
2016-11-22T05:44:03.297Z,98.61
2016-11-22T05:45:03.994Z,98.75
2016-11-22T05:46:03.985Z,99.09
2016-11-22T05:47:03.564Z,99.09
2016-11-22T05:48:03.968Z,99.09
2016-11-22T05:49:03.520Z,99.09
2016-11-22T05:50:03.908Z,98.8
2016-11-22T05:51:03.905Z,98.04
2016-11-22T05:52:03.243Z,98.33
2016-11-22T05:53:03.716Z,97.99
2016-11-22T05:54:03.445Z,98.13
2016-11-22T05:55:03.842Z,98.33
2016-11-22T05:56:03.418Z,98.33
2016-11-22T05:57:03.058Z,98.13
2016-11-22T05:58:03.358Z,98.61
2016-11-22T05:59:03.107Z,98.04
2016-11-22T06:00:03.729Z,98.13
2016-11-22T06:01:03.713Z,97.75
2016-11-22T06:02:03.305Z,97.66
2016-11-22T06:03:03.676Z,97.85
2016-11-22T06:04:03.669Z,97.75
2016-11-22T06:05:03.635Z,98.13
2016-11-22T06:06:03.619Z,98.04
2016-11-22T06:07:03.486Z,98.42
2016-11-22T06:08:03.021Z,98.42
2016-11-22T06:09:03.587Z,98.33
2016-11-22T06:10:02.859Z,98.13
2016-11-22T06:11:03.531Z,98.8
2016-11-22T06:12:02.788Z,98.8
2016-11-22T06:13:03.485Z,97.94
2016-11-22T06:14:03.486Z,97.94
2016-11-22T06:15:03.373Z,98.13
2016-11-22T06:16:03.475Z,97.66
2016-11-22T06:17:03.433Z,97.75
2016-11-22T06:18:03.428Z,97.75
2016-11-22T06:19:03.386Z,97.66
2016-11-22T06:20:02.957Z,97.37
2016-11-22T06:21:02.928Z,98.13
2016-11-22T06:22:03.207Z,97.85
2016-11-22T06:23:02.970Z,97.47
2016-11-22T06:24:03.616Z,97.47
2016-11-22T06:25:02.544Z,97.47
2016-11-22T06:26:02.877Z,97.37
2016-11-22T06:27:02.584Z,96.99
2016-11-22T06:28:03.194Z,96.7
2016-11-22T06:29:02.551Z,97.08
2016-11-22T06:30:03.203Z,96.99
2016-11-22T06:31:03.165Z,96.7
2016-11-22T06:32:02.726Z,96.99
2016-11-22T06:33:03.118Z,96.7
2016-11-22T06:34:02.696Z,96.7
2016-11-22T06:35:02.711Z,96.7
2016-11-22T06:36:03.078Z,96.99
2016-11-22T06:37:02.392Z,96.7
2016-11-22T06:38:03.041Z,96.42
2016-11-22T06:39:03.027Z,96.32
2016-11-22T06:40:02.341Z,96.46
2016-11-22T06:41:02.952Z,96.84
2016-11-22T06:42:02.950Z,96.89
2016-11-22T06:43:02.933Z,97.03
2016-11-22T06:44:02.917Z,96.56
2016-11-22T06:45:02.882Z,96.42
2016-11-22T06:46:02.462Z,96.46
2016-11-22T06:47:02.871Z,96.17
2016-11-22T06:48:02.711Z,96.37
2016-11-22T06:49:02.832Z,96.17
2016-11-22T06:50:02.818Z,96.37
2016-11-22T06:51:02.636Z,96.08
2016-11-22T06:52:02.347Z,96.08
2016-11-22T06:53:02.024Z,96.66
2016-11-22T06:54:02.313Z,96.27
2016-11-22T06:55:02.707Z,95.89
2016-11-22T06:56:02.694Z,95.79
2016-11-22T06:57:02.657Z,95.89
2016-11-22T06:58:01.914Z,95.89
2016-11-22T06:59:02.219Z,96.27
2016-11-22T07:00:02.608Z,95.89
2016-11-22T07:01:02.586Z,95.79
2016-11-22T07:02:02.562Z,95.79
2016-11-22T07:03:02.563Z,95.79
2016-11-22T07:04:02.528Z,95.79
2016-11-22T07:05:01.876Z,95.89
2016-11-22T07:06:01.840Z,95.79
2016-11-22T07:07:02.475Z,95.89
2016-11-22T07:08:02.474Z,95.7
2016-11-22T07:09:02.443Z,96.17
2016-11-22T07:10:02.431Z,96.56
2016-11-22T07:11:01.663Z,96.08
2016-11-22T07:12:02.269Z,96.37
2016-11-22T07:13:01.727Z,96.17
2016-11-22T07:14:01.618Z,96.08
2016-11-22T07:15:01.918Z,96.17
2016-11-22T07:16:02.192Z,96.08
2016-11-22T07:17:01.886Z,95.61
2016-11-22T07:18:02.224Z,95.03
2016-11-22T07:19:02.246Z,94.93
2016-11-22T07:20:01.591Z,95.03
2016-11-22T07:21:02.207Z,95.12
2016-11-22T07:22:01.886Z,95.22
2016-11-22T07:23:01.536Z,95.32
2016-11-22T07:24:02.166Z,94.7
2016-11-22T07:25:01.720Z,94.74
2016-11-22T07:26:01.472Z,94.89
2016-11-22T07:27:02.096Z,94.51
2016-11-22T07:28:02.130Z,94.12
2016-11-22T07:29:02.055Z,93.84
2016-11-22T07:30:02.086Z,94.7
2016-11-22T07:31:01.612Z,94.6
2016-11-22T07:32:02.041Z,94.51
2016-11-22T07:33:01.979Z,94.6
2016-11-22T07:34:01.982Z,94.79
2016-11-22T07:35:01.938Z,94.22
2016-11-22T07:36:01.971Z,94.6
2016-11-22T07:37:01.495Z,94.31
2016-11-22T07:38:01.905Z,94.02
2016-11-22T07:39:01.865Z,93.55
2016-11-22T07:40:01.735Z,93.74
2016-11-22T07:41:01.836Z,93.84
2016-11-22T07:42:01.836Z,94.12
2016-11-22T07:43:01.166Z,93.65
2016-11-22T07:44:01.452Z,94.31
2016-11-22T07:45:01.116Z,94.31
2016-11-22T07:46:01.337Z,94.31
2016-11-22T07:47:01.729Z,93.93
2016-11-22T07:48:01.305Z,94.12
2016-11-22T07:49:01.544Z,94.17
2016-11-22T07:50:01.023Z,94.02
2016-11-22T07:51:01.006Z,94.12
2016-11-22T07:52:01.336Z,93.74
2016-11-22T07:53:01.617Z,93.93
2016-11-22T07:54:00.863Z,94.22
2016-11-22T07:55:01.176Z,93.84
2016-11-22T07:56:01.575Z,93.69
2016-11-22T07:57:01.407Z,94.17
2016-11-22T07:58:01.525Z,94.07
2016-11-22T07:59:00.850Z,94.02
2016-11-22T08:00:01.475Z,94.36
2016-11-22T08:01:01.464Z,93.74
2016-11-22T08:02:00.913Z,93.65
2016-11-22T08:03:01.434Z,94.31
2016-11-22T08:04:01.424Z,94.12
2016-11-22T08:05:00.988Z,94.22
2016-11-22T08:06:00.973Z,94.7
2016-11-22T08:07:01.374Z,94.6
2016-11-22T08:08:01.316Z,94.79
2016-11-22T08:09:00.583Z,95.36
2016-11-22T08:10:00.905Z,95.56
2016-11-22T08:11:01.282Z,95.56
2016-11-22T08:12:01.115Z,95.27
2016-11-22T08:13:01.264Z,95.17
2016-11-22T08:14:01.092Z,94.6
2016-11-22T08:15:01.197Z,95.27
2016-11-22T08:16:01.204Z,94.7
2016-11-22T08:17:01.178Z,95.36
2016-11-22T08:18:01.141Z,95.27
2016-11-22T08:19:01.010Z,95.46
2016-11-22T08:20:00.388Z,95.56
2016-11-22T08:21:01.093Z,96.13
2016-11-22T08:22:01.074Z,96.13
2016-11-22T08:23:01.074Z,96.22
2016-11-22T08:24:00.634Z,95.84
2016-11-22T08:25:01.015Z,96.13
2016-11-22T08:26:00.622Z,96.13
2016-11-22T08:27:00.998Z,95.75
2016-11-22T08:28:01.029Z,96.13
2016-11-22T08:29:00.540Z,95.46
2016-11-22T08:30:00.950Z,95.17
2016-11-22T08:31:00.267Z,95.03
2016-11-22T08:32:00.913Z,95.22
2016-11-22T08:33:00.145Z,95.17
2016-11-22T08:34:00.942Z,94.74
2016-11-22T08:35:00.867Z,94.55
2016-11-22T08:36:00.704Z,94.26
2016-11-22T08:37:00.149Z,94.36
2016-11-22T08:38:00.371Z,94.74
2016-11-22T08:39:00.659Z,94.36
2016-11-22T08:40:00.342Z,93.88
2016-11-22T08:41:00.001Z,93.79
2016-11-22T08:42:00.573Z,93.6
2016-11-22T08:43:00.702Z,93.5
2016-11-22T08:44:00.266Z,93.45
2016-11-22T08:45:00.667Z,92.88
2016-11-22T08:46:00.502Z,92.3
2016-11-22T08:46:59.896Z,92.49
2016-11-22T08:48:00.198Z,92.97
2016-11-22T08:48:59.948Z,93.35
2016-11-22T08:49:59.916Z,93.6
2016-11-22T08:51:00.153Z,92.88
2016-11-22T08:52:00.540Z,92.4
2016-11-22T08:53:00.107Z,92.02
2016-11-22T08:54:00.095Z,91.68
2016-11-22T08:55:00.472Z,92.02
2016-11-22T08:56:00.458Z,92.4
2016-11-22T08:57:00.037Z,92.88
2016-11-22T08:58:00.028Z,93.02
2016-11-22T08:58:59.763Z,93.16
2016-11-22T08:59:59.753Z,92.97
2016-11-22T09:00:59.969Z,92.97
2016-11-22T09:02:00.073Z,93.16
2016-11-22T09:03:00.332Z,93.07
2016-11-22T09:03:59.954Z,93.64
2016-11-22T09:04:59.897Z,93.45
2016-11-22T09:06:00.337Z,93.64
2016-11-22T09:06:59.622Z,93.64
2016-11-22T09:08:00.273Z,93.16
2016-11-22T09:08:59.843Z,93.55
2016-11-22T09:10:00.231Z,93.69
2016-11-22T09:11:00.064Z,93.45
2016-11-22T09:12:00.243Z,93.64
2016-11-22T09:13:00.198Z,93.64
2016-11-22T09:13:59.503Z,93.74
2016-11-22T09:14:59.503Z,93.35
2016-11-22T09:15:59.772Z,93.74
2016-11-22T09:17:00.102Z,93.64
2016-11-22T09:18:00.100Z,93.84
2016-11-22T09:18:59.342Z,94.26
2016-11-22T09:20:00.052Z,94.36
2016-11-22T09:20:59.377Z,94.55
2016-11-22T09:22:00.062Z,94.84
2016-11-22T09:22:59.391Z,94.74
2016-11-22T09:23:59.621Z,95.12
2016-11-22T09:24:59.315Z,95.41
2016-11-22T09:25:59.953Z,95.22
2016-11-22T09:26:59.911Z,95.22
2016-11-22T09:27:59.913Z,94.93
2016-11-22T09:28:59.894Z,94.55
2016-11-22T09:29:59.474Z,94.12
2016-11-22T09:30:59.848Z,93.74
2016-11-22T09:31:59.106Z,93.84
2016-11-22T09:32:59.833Z,93.93
2016-11-22T09:33:59.161Z,93.64
2016-11-22T09:34:59.133Z,93.16
2016-11-22T09:35:59.353Z,93.64
2016-11-22T09:36:59.747Z,93.55
2016-11-22T09:37:59.732Z,93.16
2016-11-22T09:38:59.323Z,92.54
2016-11-22T09:39:59.289Z,91.87
2016-11-22T09:40:59.280Z,91.2
2016-11-22T09:41:59.678Z,90.91
2016-11-22T09:42:59.118Z,90.48
2016-11-22T09:43:58.984Z,91.2
2016-11-22T09:44:58.972Z,90.63
2016-11-22T09:45:59.612Z,90.19
2016-11-22T09:46:58.846Z,90.63
2016-11-22T09:47:58.916Z,90.77
2016-11-22T09:48:59.133Z,90.82
2016-11-22T09:49:59.133Z,91.01
2016-11-22T09:50:59.373Z,91.39
2016-11-22T09:51:59.095Z,91.11
2016-11-22T09:52:58.942Z,91.01
2016-11-22T09:53:59.481Z,90.29
2016-11-22T09:54:59.038Z,89.9
2016-11-22T09:55:59.443Z,90.44
2016-11-22T09:56:59.008Z,90.44
2016-11-22T09:57:59.413Z,90.34
2016-11-22T09:58:59.392Z,91.01
2016-11-22T09:59:59.244Z,91.2
2016-11-22T10:00:58.776Z,91.01
2016-11-22T10:01:59.354Z,90.15
2016-11-22T10:02:59.329Z,90.09
2016-11-22T10:03:59.312Z,90.39
2016-11-22T10:04:58.881Z,90.05
2016-11-22T10:05:59.281Z,89.81
2016-11-22T10:06:58.843Z,89.81
2016-11-22T10:07:59.230Z,89.33
2016-11-22T10:08:58.573Z,89.52
2016-11-22T10:09:59.245Z,88.9
2016-11-22T10:10:59.171Z,88.23
2016-11-22T10:11:59.174Z,87.84
2016-11-22T10:12:59.163Z,88.13
2016-11-22T10:13:59.173Z,88.03
2016-11-22T10:14:59.123Z,88.51
2016-11-22T10:15:59.157Z,88.13
2016-11-22T10:16:58.448Z,88.13
2016-11-22T10:17:59.077Z,87.27
2016-11-22T10:18:59.077Z,88.37
2016-11-22T10:19:59.058Z,88.03
2016-11-22T10:20:58.616Z,88.28
2016-11-22T10:21:58.286Z,88.28
2016-11-22T10:22:58.361Z,88.03
2016-11-22T10:23:59.003Z,87.84
2016-11-22T10:24:58.315Z,87.94
2016-11-22T10:25:58.299Z,88.13
2016-11-22T10:26:58.793Z,86.98
2016-11-22T10:27:58.511Z,87.08
2016-11-22T10:28:58.490Z,87.37
2016-11-22T10:29:58.473Z,87.46
2016-11-22T10:30:58.463Z,86.88
2016-11-22T10:31:58.716Z,87.17
2016-11-22T10:32:58.844Z,87.17
2016-11-22T10:33:58.686Z,87.74
2016-11-22T10:34:58.809Z,86.69
2016-11-22T10:35:58.378Z,87.08
2016-11-22T10:36:58.784Z,86.79
2016-11-22T10:37:58.028Z,88.03
2016-11-22T10:38:58.749Z,87.94
2016-11-22T10:39:58.732Z,87.65
2016-11-22T10:40:58.732Z,87.08
2016-11-22T10:41:58.714Z,87.17
2016-11-22T10:42:58.541Z,87.74
2016-11-22T10:43:58.025Z,86.79
2016-11-22T10:44:58.244Z,87.74
2016-11-22T10:45:58.630Z,87.94
2016-11-22T10:46:58.214Z,88.18
2016-11-22T10:47:57.953Z,88.03
2016-11-22T10:48:58.593Z,88.32
2016-11-22T10:49:58.150Z,87.65
2016-11-22T10:50:58.554Z,88.13
2016-11-22T10:51:58.128Z,88.09
2016-11-22T10:52:58.117Z,87.8
2016-11-22T10:53:58.524Z,87.99
2016-11-22T10:54:58.084Z,87.9
2016-11-22T10:55:58.055Z,87.99
2016-11-22T10:56:58.463Z,87.99
2016-11-22T10:57:58.435Z,87.65
2016-11-22T10:58:58.404Z,87.84
2016-11-22T10:59:58.006Z,87.9
2016-11-22T11:00:58.406Z,87.27
2016-11-22T11:01:57.969Z,86.16
2016-11-22T11:02:57.835Z,86.07
2016-11-22T11:03:57.922Z,85.88
2016-11-22T11:04:58.360Z,85.68
2016-11-22T11:05:57.897Z,86.25
2016-11-22T11:06:58.283Z,85.97
2016-11-22T11:07:58.289Z,86.69
2016-11-22T11:08:58.260Z,87.27
2016-11-22T11:09:58.102Z,87.46
2016-11-22T11:10:58.244Z,87.99
2016-11-22T11:11:58.214Z,88.09
2016-11-22T11:12:58.229Z,87.51
2016-11-22T11:13:58.178Z,87.9
2016-11-22T11:14:58.024Z,88.28
2016-11-22T11:15:58.156Z,87.8
2016-11-22T11:16:58.174Z,87.99
2016-11-22T11:17:58.115Z,88.47
2016-11-22T11:18:57.795Z,88.18
2016-11-22T11:19:58.067Z,88.47
2016-11-22T11:20:57.937Z,87.61
2016-11-22T11:21:58.051Z,88.18
2016-11-22T11:22:58.021Z,88.18
2016-11-22T11:23:58.024Z,88.37
2016-11-22T11:24:57.991Z,88.66
2016-11-22T11:25:57.570Z,88.09
2016-11-22T11:26:57.561Z,87.99
2016-11-22T11:27:57.956Z,89.23
2016-11-22T11:28:57.794Z,89.76
2016-11-22T11:29:57.513Z,88.61
2016-11-22T11:30:57.485Z,88.23
2016-11-22T11:31:57.147Z,88.03
2016-11-22T11:32:57.889Z,87.08
2016-11-22T11:33:57.861Z,87.21
2016-11-22T11:34:57.843Z,86.45
2016-11-22T11:35:57.831Z,85.49
2016-11-22T11:36:57.808Z,85.88
2016-11-22T11:37:57.654Z,85.11
2016-11-22T11:38:57.071Z,85.39
2016-11-22T11:39:57.768Z,85.05
2016-11-22T11:40:57.118Z,84.28
2016-11-22T11:41:56.990Z,84.58
2016-11-22T11:42:57.154Z,84.86
2016-11-22T11:43:57.709Z,84.86
2016-11-22T11:44:57.612Z,85.05
2016-11-22T11:45:57.512Z,83.61
2016-11-22T11:46:57.672Z,83.94
2016-11-22T11:47:57.617Z,83.75
2016-11-22T11:48:57.606Z,84.23
2016-11-22T11:49:57.625Z,83.27
2016-11-22T11:50:57.664Z,83.18
2016-11-22T11:51:56.835Z,82.7
2016-11-22T11:52:56.938Z,82.98
2016-11-22T11:53:57.556Z,82.79
2016-11-22T11:54:56.876Z,82.89
2016-11-22T11:55:57.178Z,82.89
2016-11-22T11:56:57.509Z,82.64
2016-11-22T11:57:57.074Z,82.16
2016-11-22T11:58:56.817Z,81.59
2016-11-22T11:59:57.307Z,81.68
2016-11-22T12:00:57.016Z,82.51
2016-11-22T12:01:57.272Z,82.12
2016-11-22T12:02:57.399Z,82.79
2016-11-22T12:03:57.384Z,82.21
2016-11-22T12:04:57.417Z,82.98
2016-11-22T12:05:56.984Z,82.89
2016-11-22T12:06:57.208Z,82.98
2016-11-22T12:07:56.927Z,82.89
2016-11-22T12:08:56.907Z,82.6
2016-11-22T12:09:57.315Z,82.41
2016-11-22T12:10:56.880Z,81.68
2016-11-22T12:11:57.285Z,81.49
2016-11-22T12:12:57.146Z,82.21
2016-11-22T12:13:57.098Z,82.6
2016-11-22T12:14:57.239Z,82.85
2016-11-22T12:15:56.488Z,82.94
2016-11-22T12:16:57.242Z,82.6
2016-11-22T12:17:57.194Z,82.89
2016-11-22T12:18:57.175Z,82.89
2016-11-22T12:19:57.016Z,83.33
2016-11-22T12:20:56.721Z,83.61
2016-11-22T12:21:57.138Z,83.67
2016-11-22T12:22:56.366Z,84.05
2016-11-22T12:23:57.096Z,84.15
2016-11-22T12:24:57.082Z,84.82
2016-11-22T12:25:56.656Z,84.44
2016-11-22T12:26:57.106Z,85.11
2016-11-22T12:27:56.625Z,85.11
2016-11-22T12:28:57.014Z,85.3
2016-11-22T12:29:56.577Z,85.45
2016-11-22T12:30:56.989Z,85.45
2016-11-22T12:31:56.417Z,86.12
2016-11-22T12:32:56.957Z,86.41
2016-11-22T12:33:56.939Z,85.93
2016-11-22T12:34:56.906Z,85.74
2016-11-22T12:35:56.261Z,86.12
2016-11-22T12:36:56.885Z,85.74
2016-11-22T12:37:56.453Z,85.74
2016-11-22T12:38:56.194Z,85.21
2016-11-22T12:39:56.101Z,85.93
2016-11-22T12:40:56.416Z,85.74
2016-11-22T12:41:56.798Z,85.78
2016-11-22T12:42:56.793Z,85.97
2016-11-22T12:43:56.766Z,86.02
2016-11-22T12:44:56.749Z,86.41
2016-11-22T12:45:56.749Z,85.97
2016-11-22T12:46:56.304Z,85.3
2016-11-22T12:47:56.704Z,85.11
2016-11-22T12:48:56.038Z,85.49
2016-11-22T12:49:55.936Z,85.39
2016-11-22T12:50:56.520Z,86.12
2016-11-22T12:51:56.504Z,86.12
2016-11-22T12:52:55.894Z,85.64
2016-11-22T12:53:56.645Z,85.49
2016-11-22T12:54:56.176Z,84.91